createdAt,value
2022-08-07T00:02:37.131Z,78.40
2022-08-07T00:05:05.967Z,78.80
2022-08-07T00:07:40.317Z,78.79
2022-08-07T00:10:30.503Z,78.87
2022-08-07T00:13:09.750Z,78.65
2022-08-07T00:15:53.113Z,78.75
2022-08-07T00:18:23.944Z,78.41
2022-08-07T00:21:01.683Z,78.67
2022-08-07T00:23:33.857Z,79.52
2022-08-07T00:26:13.239Z,79.32
2022-08-07T00:28:56.813Z,79.29
2022-08-07T00:31:37.855Z,79.64
2022-08-07T00:34:10.268Z,79.13
2022-08-07T00:36:43.359Z,79.46
2022-08-07T00:39:16.869Z,79.83
2022-08-07T00:42:01.435Z,80.09
2022-08-07T00:44:34.561Z,80.07
2022-08-07T00:47:04.131Z,80.73
2022-08-07T00:50:20.390Z,80.53
2022-08-07T00:52:24.875Z,80.56
2022-08-07T00:54:54.330Z,79.99
2022-08-07T00:57:25.937Z,79.97
2022-08-07T00:59:55.377Z,80.39
2022-08-07T01:02:28.419Z,80.04
2022-08-07T01:05:00.727Z,79.95
2022-08-07T01:07:31.540Z,79.88
2022-08-07T01:10:06.946Z,79.55
2022-08-07T01:12:53.397Z,80.35
2022-08-07T01:16:00.853Z,80.09
2022-08-07T01:18:17.049Z,80.11
2022-08-07T01:21:22.574Z,80.23
2022-08-07T01:23:54.907Z,79.14
2022-08-07T01:26:26.252Z,78.69
2022-08-07T01:28:56.466Z,79.12
2022-08-07T01:31:41.982Z,79.09
2022-08-07T01:34:14.960Z,79.03
2022-08-07T01:36:52.643Z,79.49
2022-08-07T01:39:40.360Z,79.93
2022-08-07T01:42:57.358Z,80.00
2022-08-07T01:45:36.379Z,79.91
2022-08-07T01:48:29.352Z,80.40
2022-08-07T01:51:24.418Z,80.80
2022-08-07T01:54:11.977Z,80.80
2022-08-07T01:56:54.058Z,81.02
2022-08-07T01:59:45.144Z,80.95
2022-08-07T02:03:12.137Z,81.22
2022-08-07T02:05:15.845Z,81.48
2022-08-07T02:07:53.304Z,81.95
2022-08-07T02:10:33.744Z,82.23
2022-08-07T02:13:07.820Z,82.31
2022-08-07T02:15:53.121Z,82.78
2022-08-07T02:18:25.894Z,82.89
2022-08-07T02:21:00.994Z,83.44
2022-08-07T02:23:40.599Z,84.08
2022-08-07T02:26:31.695Z,84.47
2022-08-07T02:29:00.082Z,84.59
2022-08-07T02:31:32.608Z,84.83
2022-08-07T02:34:11.692Z,85.02
2022-08-07T02:36:53.675Z,85.35
2022-08-07T02:39:43.802Z,85.52
2022-08-07T02:42:18.546Z,85.42
2022-08-07T02:44:51.890Z,85.90
2022-08-07T02:47:23.917Z,85.95
2022-08-07T02:50:01.736Z,86.08
2022-08-07T02:53:10.914Z,86.21
2022-08-07T02:56:03.371Z,86.23
2022-08-07T02:58:39.799Z,86.55
2022-08-07T03:01:19.103Z,86.73
2022-08-07T03:04:12.637Z,86.54
2022-08-07T03:06:45.959Z,87.04
2022-08-07T03:09:44.697Z,86.78
2022-08-07T03:12:14.200Z,87.07
2022-08-07T03:14:56.873Z,87.36
2022-08-07T03:17:26.801Z,87.12
2022-08-07T03:19:57.642Z,86.61
2022-08-07T03:22:30.673Z,86.31
2022-08-07T03:25:01.496Z,86.63
2022-08-07T03:27:58.691Z,86.50
2022-08-07T03:30:28.667Z,86.38
2022-08-07T03:33:02.432Z,86.78
2022-08-07T03:35:43.660Z,86.72
2022-08-07T03:38:25.594Z,86.91
2022-08-07T03:41:02.138Z,86.87
2022-08-07T03:43:36.090Z,87.04
2022-08-07T03:46:10.547Z,87.29
2022-08-07T03:49:02.045Z,88.26
2022-08-07T03:51:47.765Z,88.11
2022-08-07T03:54:35.488Z,88.71
2022-08-07T03:59:05.551Z,88.45
2022-08-07T04:00:02.656Z,88.68
2022-08-07T04:02:47.137Z,88.32
2022-08-07T04:05:40.204Z,88.54
2022-08-07T04:08:21.106Z,88.52
2022-08-07T04:10:54.428Z,89.03
2022-08-07T04:14:09.873Z,88.66
2022-08-07T04:16:35.657Z,88.75
2022-08-07T04:19:15.245Z,89.03
2022-08-07T04:21:59.099Z,89.01
2022-08-07T04:24:38.782Z,89.55
2022-08-07T04:27:20.404Z,89.47
2022-08-07T04:30:01.244Z,89.41
2022-08-07T04:32:48.158Z,89.09
2022-08-07T04:35:35.278Z,89.72
2022-08-07T04:38:11.419Z,89.04
2022-08-07T04:40:51.796Z,89.25
2022-08-07T04:44:11.722Z,89.50
2022-08-07T04:47:08.269Z,89.67
2022-08-07T04:50:03.888Z,89.92
2022-08-07T04:52:51.761Z,89.82
2022-08-07T04:58:24.302Z,89.63
2022-08-07T04:58:49.675Z,89.57
2022-08-07T05:01:21.079Z,89.70
2022-08-07T05:04:28.054Z,89.70
2022-08-07T05:07:19.998Z,89.47
2022-08-07T05:10:11.142Z,89.75
2022-08-07T05:12:53.639Z,89.95
2022-08-07T05:15:32.091Z,89.40
2022-08-07T05:18:09.336Z,88.63
2022-08-07T05:20:47.533Z,88.21
2022-08-07T05:23:37.114Z,87.12
2022-08-07T05:26:18.718Z,87.06
2022-08-07T05:28:58.627Z,86.51
2022-08-07T05:31:39.525Z,86.05
2022-08-07T05:34:18.385Z,84.90
2022-08-07T05:36:52.934Z,85.31
2022-08-07T05:40:06.821Z,86.05
2022-08-07T05:42:34.261Z,85.78
2022-08-07T05:45:26.327Z,85.01
2022-08-07T05:48:03.317Z,84.92
2022-08-07T05:50:43.365Z,83.94
2022-08-07T05:54:12.816Z,83.57
2022-08-07T05:56:06.965Z,84.16
2022-08-07T05:58:52.417Z,83.92
2022-08-07T06:01:35.627Z,83.64
2022-08-07T06:04:09.175Z,83.17
2022-08-07T06:06:46.316Z,81.76
2022-08-07T06:09:19.283Z,82.29
2022-08-07T06:11:51.269Z,81.06
2022-08-07T06:14:28.588Z,80.63
2022-08-07T06:17:07.325Z,81.31
2022-08-07T06:19:51.876Z,81.42
2022-08-07T06:22:38.727Z,82.22
2022-08-07T06:25:26.534Z,82.25
2022-08-07T06:28:07.677Z,80.91
2022-08-07T06:30:42.742Z,80.82
2022-08-07T06:33:20.069Z,81.01
2022-08-07T06:36:06.889Z,79.89
2022-08-07T06:38:59.546Z,78.91
2022-08-07T06:42:01.666Z,78.41
2022-08-07T06:45:11.314Z,79.39
2022-08-07T06:47:48.307Z,77.46
2022-08-07T06:50:30.450Z,74.61
2022-08-07T06:53:04.200Z,73.59
2022-08-07T06:55:47.895Z,73.26
2022-08-07T06:58:28.814Z,73.15
2022-08-07T07:01:14.183Z,74.08
2022-08-07T07:03:49.244Z,70.71
2022-08-07T07:06:27.115Z,70.75
2022-08-07T07:08:56.856Z,70.65
2022-08-07T07:12:07.723Z,68.79
2022-08-07T07:14:19.025Z,66.12
2022-08-07T07:16:53.427Z,67.46
2022-08-07T07:19:55.923Z,64.62
2022-08-07T07:22:36.008Z,65.54
2022-08-07T07:26:30.687Z,64.29
2022-08-07T07:28:42.167Z,64.52
2022-08-07T07:31:44.150Z,63.23
2022-08-07T07:34:18.274Z,62.27
2022-08-07T07:36:53.845Z,60.38
2022-08-07T07:39:25.898Z,60.45
2022-08-07T07:42:17.624Z,60.62
2022-08-07T07:44:50.634Z,60.55
2022-08-07T07:47:23.632Z,58.94
2022-08-07T07:50:34.692Z,59.53
2022-08-07T07:52:46.918Z,60.15
2022-08-07T07:55:23.161Z,58.97
2022-08-07T07:57:58.162Z,60.29
2022-08-07T08:00:31.489Z,59.78
2022-08-07T08:03:09.016Z,61.90
2022-08-07T08:05:54.846Z,59.85
2022-08-07T08:08:35.238Z,60.72
2022-08-07T08:11:08.596Z,61.52
2022-08-07T08:13:55.176Z,62.36
2022-08-07T08:16:31.022Z,61.58
2022-08-07T08:19:17.990Z,61.74
2022-08-07T08:22:11.545Z,63.00
2022-08-07T08:25:18.690Z,61.09
2022-08-07T08:28:01.734Z,60.36
2022-08-07T08:30:42.484Z,61.43
2022-08-07T08:33:19.547Z,62.22
2022-08-07T08:35:56.350Z,62.05
2022-08-07T08:38:29.961Z,63.54
2022-08-07T08:41:05.520Z,63.76
2022-08-07T08:43:42.170Z,63.38
2022-08-07T08:46:38.642Z,62.87
2022-08-07T08:49:32.748Z,64.53
2022-08-07T08:52:25.148Z,64.76
2022-08-07T08:55:07.856Z,65.75
2022-08-07T08:57:45.213Z,66.38
2022-08-07T09:00:14.973Z,67.06
2022-08-07T09:02:53.543Z,68.09
2022-08-07T09:05:59.855Z,68.71
2022-08-07T09:09:30.133Z,69.30
2022-08-07T09:12:20.070Z,70.39
2022-08-07T09:16:21.617Z,68.44
2022-08-07T09:18:33.728Z,68.71
2022-08-07T09:21:57.940Z,65.20
2022-08-07T09:24:59.774Z,65.77
2022-08-07T09:28:03.102Z,64.82
2022-08-07T09:31:15.397Z,63.88
2022-08-07T09:34:33.184Z,64.46
2022-08-07T09:37:03.274Z,63.00
2022-08-07T09:40:00.586Z,60.26
2022-08-07T09:42:53.320Z,59.39
2022-08-07T09:47:24.644Z,59.88
2022-08-07T09:50:01.738Z,60.40
2022-08-07T09:52:10.809Z,61.27
2022-08-07T09:54:47.933Z,60.71
2022-08-07T09:57:53.719Z,61.07
2022-08-07T10:00:31.949Z,60.46
2022-08-07T10:04:04.943Z,59.89
2022-08-07T10:06:38.854Z,61.01
2022-08-07T10:09:59.071Z,61.99
2022-08-07T10:14:00.570Z,62.67
2022-08-07T10:17:01.103Z,62.27
2022-08-07T10:20:13.255Z,61.93
2022-08-07T10:23:02.711Z,60.37
2022-08-07T10:26:13.258Z,60.75
2022-08-07T10:29:02.647Z,58.94
2022-08-07T10:32:31.569Z,59.87
2022-08-07T10:35:14.882Z,57.86
2022-08-07T10:38:21.653Z,57.60
2022-08-07T10:41:07.611Z,56.49
2022-08-07T10:43:45.213Z,56.62
2022-08-07T10:46:20.410Z,56.86
2022-08-07T10:49:10.886Z,55.97
2022-08-07T10:52:02.121Z,56.62
2022-08-07T10:54:53.518Z,57.12
2022-08-07T10:57:39.585Z,56.64
2022-08-07T11:00:39.154Z,56.43
2022-08-07T11:03:20.871Z,55.89
2022-08-07T11:06:26.735Z,57.08
2022-08-07T11:08:58.292Z,57.17
2022-08-07T11:11:36.112Z,56.47
2022-08-07T11:14:45.488Z,56.42
2022-08-07T11:17:43.246Z,55.77
2022-08-07T11:20:27.350Z,54.87
2022-08-07T11:23:26.275Z,55.07
2022-08-07T11:26:06.346Z,55.51
2022-08-07T11:28:51.329Z,54.63
2022-08-07T11:31:47.708Z,54.48
2022-08-07T11:34:43.381Z,55.25
2022-08-07T11:37:58.443Z,53.72
2022-08-07T11:40:45.318Z,54.64
2022-08-07T11:43:41.589Z,54.34
2022-08-07T11:46:42.791Z,54.04
2022-08-07T11:49:51.155Z,54.62
2022-08-07T11:52:10.541Z,55.20
2022-08-07T11:55:13.171Z,54.47
2022-08-07T11:58:16.559Z,54.77
2022-08-07T12:01:20.150Z,55.55
2022-08-07T12:04:12.373Z,55.08
2022-08-07T12:07:03.033Z,55.27
2022-08-07T12:09:47.318Z,55.49
2022-08-07T12:12:25.008Z,55.65
2022-08-07T12:15:17.412Z,55.23
2022-08-07T12:18:30.667Z,55.10
2022-08-07T12:21:55.911Z,54.54
2022-08-07T12:24:37.934Z,55.44
2022-08-07T12:27:16.199Z,54.59
2022-08-07T12:29:51.582Z,54.23
2022-08-07T12:32:35.496Z,55.03
2022-08-07T12:35:08.333Z,55.25
2022-08-07T12:38:09.720Z,55.33
2022-08-07T12:40:50.453Z,55.14
2022-08-07T12:44:02.790Z,54.62
2022-08-07T12:46:26.653Z,55.16
2022-08-07T12:49:44.720Z,54.13
2022-08-07T12:52:46.160Z,54.15
2022-08-07T12:55:40.834Z,54.65
2022-08-07T12:58:15.350Z,54.74
2022-08-07T13:00:51.604Z,55.19
2022-08-07T13:04:02.553Z,55.41
2022-08-07T13:06:54.205Z,55.82
2022-08-07T13:10:20.931Z,56.10
2022-08-07T13:13:12.025Z,57.30
2022-08-07T13:16:11.521Z,58.32
2022-08-07T13:18:58.041Z,59.99
2022-08-07T13:21:37.830Z,61.15
2022-08-07T13:24:31.666Z,61.55
2022-08-07T13:27:12.749Z,62.91
2022-08-07T13:29:59.185Z,63.40
2022-08-07T13:32:38.270Z,63.75
2022-08-07T13:35:15.819Z,64.26
2022-08-07T13:37:59.000Z,64.64
2022-08-07T13:40:43.235Z,64.89
2022-08-07T13:43:15.243Z,64.83
2022-08-07T13:46:20.895Z,65.13
2022-08-07T13:48:40.811Z,65.97
2022-08-07T13:51:28.533Z,65.95
2022-08-07T13:54:07.311Z,66.41
2022-08-07T13:56:41.363Z,66.62
2022-08-07T13:59:25.279Z,66.93
2022-08-07T14:02:08.437Z,67.19
2022-08-07T14:04:56.545Z,67.58
2022-08-07T14:07:31.574Z,67.39
2022-08-07T14:10:21.608Z,67.52
2022-08-07T14:13:00.721Z,67.42
2022-08-07T14:15:39.515Z,67.13
2022-08-07T14:18:24.114Z,67.10
2022-08-07T14:22:00.458Z,67.08
2022-08-07T14:24:22.972Z,66.88
2022-08-07T14:26:59.784Z,66.99
2022-08-07T14:30:09.527Z,67.14
2022-08-07T14:32:24.937Z,67.75
2022-08-07T14:34:55.844Z,67.83
2022-08-07T14:37:35.996Z,67.70
2022-08-07T14:40:15.752Z,67.91
2022-08-07T14:43:01.167Z,67.78
2022-08-07T14:45:51.071Z,67.94
2022-08-07T14:48:28.355Z,68.46
2022-08-07T14:51:20.676Z,68.66
2022-08-07T14:54:09.847Z,68.80
2022-08-07T14:56:44.607Z,69.28
2022-08-07T15:00:03.738Z,69.49
2022-08-07T15:02:31.739Z,69.84
2022-08-07T15:05:20.234Z,70.39
2022-08-07T15:10:58.649Z,70.90
2022-08-07T15:16:33.558Z,71.51
2022-08-07T15:22:04.666Z,72.38
2022-08-07T15:25:14.834Z,72.53
2022-08-07T15:27:31.583Z,72.80
2022-08-07T15:33:03.820Z,73.18
2022-08-07T15:44:18.287Z,74.38
2022-08-07T15:46:56.773Z,74.32
2022-08-07T15:52:30.186Z,74.55
2022-08-07T15:55:03.753Z,74.86
2022-08-07T15:57:40.120Z,74.98
2022-08-07T16:00:31.133Z,74.94
2022-08-07T16:03:03.525Z,75.02
2022-08-07T16:05:34.144Z,75.02
2022-08-07T16:08:32.925Z,75.48
2022-08-07T16:11:26.702Z,75.31
2022-08-07T16:14:12.504Z,75.51
2022-08-07T16:16:57.114Z,75.60
2022-08-07T16:19:58.736Z,75.70
2022-08-07T16:22:55.173Z,75.52
2022-08-07T16:25:54.424Z,76.14
2022-08-07T16:30:08.756Z,75.90
2022-08-07T16:31:51.046Z,76.08
2022-08-07T16:34:45.515Z,76.19
2022-08-07T16:38:03.934Z,76.19
2022-08-07T16:40:31.856Z,76.35
2022-08-07T16:43:12.393Z,76.73
2022-08-07T16:46:34.587Z,76.85
2022-08-07T16:50:27.148Z,76.78
2022-08-07T16:52:41.707Z,77.25
2022-08-07T16:55:08.370Z,77.46
2022-08-07T16:58:15.902Z,77.49
2022-08-07T17:01:22.929Z,77.24
2022-08-07T17:03:59.422Z,77.75
2022-08-07T17:07:04.021Z,77.51
2022-08-07T17:10:06.503Z,77.77
2022-08-07T17:12:44.052Z,77.75
2022-08-07T17:15:17.126Z,77.54
2022-08-07T17:17:49.302Z,77.44
2022-08-07T17:20:39.819Z,77.91
2022-08-07T17:23:37.703Z,77.80
2022-08-07T17:26:22.517Z,77.45
2022-08-07T17:29:04.541Z,77.64
2022-08-07T17:32:03.344Z,77.98
2022-08-07T17:35:50.341Z,78.18
2022-08-07T17:38:32.135Z,77.74
2022-08-07T17:42:00.637Z,78.16
2022-08-07T17:44:41.431Z,78.13
2022-08-07T17:47:38.612Z,77.93
2022-08-07T17:50:54.046Z,77.80
2022-08-07T17:54:01.081Z,78.06
2022-08-07T17:56:26.033Z,78.38
2022-08-07T17:58:57.786Z,78.10
2022-08-07T18:01:51.086Z,78.31
2022-08-07T18:04:31.130Z,78.29
2022-08-07T18:07:20.942Z,78.48
2022-08-07T18:10:32.671Z,78.81
2022-08-07T18:13:20.602Z,79.09
2022-08-07T18:16:31.118Z,78.68
2022-08-07T18:21:03.666Z,78.89
2022-08-07T18:22:17.021Z,79.19
2022-08-07T18:24:51.989Z,78.92
2022-08-07T18:27:39.638Z,79.29
2022-08-07T18:30:31.875Z,79.33
2022-08-07T18:33:18.316Z,79.50
2022-08-07T18:36:32.806Z,79.95
2022-08-07T18:40:08.011Z,79.47
2022-08-07T18:42:19.442Z,79.66
2022-08-07T18:45:42.929Z,79.77
2022-08-07T18:50:06.766Z,79.98
2022-08-07T18:51:11.965Z,80.15
2022-08-07T18:54:05.599Z,80.53
2022-08-07T18:57:29.492Z,80.58
2022-08-07T19:00:32.662Z,80.54
2022-08-07T19:03:38.970Z,80.60
2022-08-07T19:06:16.826Z,81.09
2022-08-07T19:08:54.964Z,80.92
2022-08-07T19:11:34.865Z,80.90
2022-08-07T19:14:20.072Z,81.42
2022-08-07T19:17:04.802Z,81.45
2022-08-07T19:20:29.912Z,81.78
2022-08-07T19:23:18.413Z,81.80
2022-08-07T19:26:25.326Z,81.82
2022-08-07T19:30:58.031Z,82.04
2022-08-07T19:32:09.701Z,81.95
2022-08-07T19:34:36.233Z,82.15
2022-08-07T19:37:55.361Z,82.08
2022-08-07T19:40:30.584Z,82.45
2022-08-07T19:43:02.822Z,82.26
2022-08-07T19:46:05.320Z,82.29
2022-08-07T19:48:43.902Z,82.52
2022-08-07T19:51:50.465Z,82.22
2022-08-07T19:54:33.669Z,82.24
2022-08-07T19:58:02.755Z,82.46
2022-08-07T20:00:02.129Z,82.44
2022-08-07T20:02:51.899Z,82.62
2022-08-07T20:05:29.554Z,82.91
2022-08-07T20:08:02.838Z,82.61
2022-08-07T20:10:54.445Z,82.81
2022-08-07T20:13:33.698Z,83.02
2022-08-07T20:16:04.501Z,83.30
2022-08-07T20:18:35.126Z,83.22
2022-08-07T20:21:14.359Z,83.14
2022-08-07T20:23:53.537Z,83.13
2022-08-07T20:26:32.212Z,83.49
2022-08-07T20:29:10.166Z,83.25
2022-08-07T20:31:46.556Z,83.17
2022-08-07T20:34:40.037Z,83.29
2022-08-07T20:37:10.351Z,83.09
2022-08-07T20:40:02.757Z,83.18
2022-08-07T20:42:35.329Z,83.34
2022-08-07T20:45:33.640Z,83.45
2022-08-07T20:47:58.801Z,83.03
2022-08-07T20:50:30.622Z,83.20
2022-08-07T20:53:01.877Z,83.49
2022-08-07T20:55:35.973Z,83.60
2022-08-07T20:58:11.990Z,83.42
2022-08-07T21:00:45.075Z,83.50
2022-08-07T21:03:19.278Z,83.47
2022-08-07T21:06:21.730Z,83.94
2022-08-07T21:09:15.588Z,83.87
2022-08-07T21:11:51.462Z,83.56
2022-08-07T21:14:34.172Z,84.00
2022-08-07T21:18:06.491Z,83.71
2022-08-07T21:20:07.338Z,83.98
2022-08-07T21:22:51.399Z,84.21
2022-08-07T21:25:38.907Z,84.18
2022-08-07T21:28:49.787Z,84.28
2022-08-07T21:31:49.264Z,83.76
2022-08-07T21:34:26.761Z,84.24
2022-08-07T21:37:09.832Z,84.44
2022-08-07T21:39:48.055Z,84.46
2022-08-07T21:42:42.583Z,84.65
2022-08-07T21:46:07.763Z,84.48
2022-08-07T21:48:44.034Z,84.61
2022-08-07T21:51:32.115Z,84.72
2022-08-07T21:54:20.250Z,84.87
2022-08-07T21:56:57.941Z,84.72
2022-08-07T22:00:02.996Z,84.76
2022-08-07T22:02:32.049Z,85.05
2022-08-07T22:05:05.901Z,84.96
2022-08-07T22:07:58.939Z,84.88
2022-08-07T22:10:35.581Z,85.27
2022-08-07T22:13:13.779Z,85.15
2022-08-07T22:16:42.712Z,85.25
2022-08-07T22:19:40.923Z,85.12
2022-08-07T22:22:21.570Z,84.84
2022-08-07T22:25:08.331Z,85.14
2022-08-07T22:28:06.400Z,85.30
2022-08-07T22:30:52.689Z,85.14
2022-08-07T22:33:53.179Z,85.21
2022-08-07T22:36:38.396Z,85.35
2022-08-07T22:39:35.332Z,85.42
2022-08-07T22:42:29.595Z,85.32
2022-08-07T22:45:04.219Z,85.28
2022-08-07T22:48:00.901Z,85.38
2022-08-07T22:51:17.111Z,85.37
2022-08-07T22:54:06.976Z,85.69
2022-08-07T22:56:58.880Z,85.21
2022-08-07T22:59:53.295Z,85.32
2022-08-07T23:02:38.281Z,85.27
2022-08-07T23:06:07.587Z,85.47
2022-08-07T23:08:32.023Z,85.00
2022-08-07T23:11:24.696Z,85.18
2022-08-07T23:14:19.623Z,84.85
2022-08-07T23:17:26.661Z,84.87
2022-08-07T23:20:51.091Z,85.07
2022-08-07T23:24:05.824Z,85.34
2022-08-07T23:26:42.339Z,85.40
2022-08-07T23:30:36.063Z,85.49
2022-08-07T23:34:34.243Z,85.52
2022-08-07T23:35:56.493Z,85.68
2022-08-07T23:38:45.992Z,85.87
2022-08-07T23:42:04.336Z,85.75
2022-08-07T23:44:46.095Z,84.91
2022-08-07T23:47:30.597Z,84.02
2022-08-07T23:50:35.294Z,82.46
2022-08-07T23:53:49.533Z,81.35
2022-08-07T23:56:34.924Z,81.48
